Decoded Metar for LFBU (ANGOULEME in FRANCE) (IATA:ANG) | Meteo·Mobile Aviation Weather
aviador You're here:

LFBU Decoded Metar

ANGOULEME in FRANCE
Report Time2019-09-17 01:00:00
UTC Time2019-09-17 01:11:10
Flight Rules vfr VFR
Wind030° at 08 kt
W.Decomp.*RWY 10: 2.9 kt HW 7.5 kt LCW
Visibility9999 m
Phenomena:N/A
Clouds:N/A
Expected CloudBase > 4,000 ft AGL from Temp-Dew spread
CeilingNone
Temp20°C (ISA +6)
Dew Point10°C (53% RH)
AAT17.2°C
QNH1018 hPa
Density Alt1,122 ft
Elevation436 ft
Report Wrong Elevation
Raw Report
METAR LFBU 170100Z AUTO 03008KT CAVOK 20/10 Q1018=

Extra information for LFBU:More info

Metar Taf Metar & Taf Last 4 Metars F.Rules Stats Wind Profile Meteogram Temp Stats Airport Information Weather charts Add Link Nearby VenuesMetar ALERT Operation Metar Decoded Social comments